createdAt,value
2018-08-04T00:00:15.122Z,75.10
2018-08-04T00:02:43.691Z,75.70
2018-08-04T00:07:40.510Z,76.30
2018-08-04T00:10:19.438Z,75.80
2018-08-04T00:12:50.874Z,75.40
2018-08-04T00:15:19.723Z,75.30
2018-08-04T00:20:17.416Z,74.80
2018-08-04T00:22:46.121Z,74.40
2018-08-04T00:25:14.757Z,75.00
2018-08-04T00:27:43.335Z,74.50
2018-08-04T00:30:15.972Z,75.10
2018-08-04T00:32:44.586Z,75.60
2018-08-04T00:35:13.431Z,75.00
2018-08-04T00:37:42.078Z,75.40
2018-08-04T00:40:12.048Z,75.90
2018-08-04T00:42:40.798Z,76.10
2018-08-04T00:45:09.491Z,74.90
2018-08-04T00:47:38.100Z,75.40
2018-08-04T00:50:08.401Z,75.70
2018-08-04T00:52:36.951Z,76.30
2018-08-04T00:55:05.629Z,76.30
2018-08-04T00:57:34.307Z,76.00
2018-08-04T01:00:02.936Z,75.30
2018-08-04T01:02:31.494Z,76.00
2018-08-04T01:05:00.015Z,76.40
2018-08-04T01:07:28.579Z,76.50
2018-08-04T01:12:28.740Z,76.60
2018-08-04T01:14:57.302Z,77.10
2018-08-04T01:17:25.871Z,77.50
2018-08-04T01:19:54.413Z,77.80
2018-08-04T01:22:22.979Z,78.40
2018-08-04T01:24:51.521Z,78.50
2018-08-04T01:29:48.253Z,78.60
2018-08-04T01:32:16.821Z,78.80
2018-08-04T01:34:45.370Z,78.10
2018-08-04T01:37:13.930Z,78.30
2018-08-04T01:39:42.495Z,78.90
2018-08-04T01:42:11.131Z,79.10
2018-08-04T01:44:39.679Z,79.30
2018-08-04T01:47:08.230Z,78.20
2018-08-04T01:49:36.802Z,78.10
2018-08-04T01:52:05.369Z,78.80
2018-08-04T01:54:34.022Z,79.50
2018-08-04T01:57:02.578Z,80.60
2018-08-04T01:59:31.150Z,80.70
2018-08-04T02:01:59.675Z,81.20
2018-08-04T02:04:28.314Z,81.40
2018-08-04T02:06:57.014Z,81.80
2018-08-04T02:09:25.843Z,82.00
2018-08-04T02:11:54.479Z,82.00
2018-08-04T02:14:23.016Z,82.30
2018-08-04T02:16:51.571Z,82.60
2018-08-04T02:19:20.123Z,82.70
2018-08-04T02:21:48.676Z,83.30
2018-08-04T02:24:17.259Z,83.80
2018-08-04T02:26:45.797Z,84.20
2018-08-04T02:29:14.378Z,85.40
2018-08-04T02:31:42.920Z,85.90
2018-08-04T02:34:11.489Z,86.50
2018-08-04T02:36:40.054Z,86.80
2018-08-04T02:39:09.591Z,86.80
2018-08-04T02:41:38.181Z,86.50
2018-08-04T02:44:06.730Z,86.40
2018-08-04T02:46:35.288Z,86.20
2018-08-04T02:49:03.846Z,86.20
2018-08-04T02:51:32.408Z,86.00
2018-08-04T02:54:00.975Z,86.10
2018-08-04T02:56:29.531Z,86.10
2018-08-04T02:58:58.322Z,86.20
2018-08-04T03:01:26.910Z,86.40
2018-08-04T03:03:55.483Z,87.20
2018-08-04T03:06:24.038Z,87.90
2018-08-04T03:08:52.638Z,88.60
2018-08-04T03:11:21.210Z,89.30
2018-08-04T03:13:49.771Z,89.60
2018-08-04T03:16:18.367Z,89.80
2018-08-04T03:18:47.174Z,89.20
2018-08-04T03:21:15.706Z,89.60
2018-08-04T03:23:44.259Z,90.00
2018-08-04T03:26:12.855Z,90.00
2018-08-04T03:28:41.386Z,90.10
2018-08-04T03:31:09.946Z,90.20
2018-08-04T03:33:38.511Z,90.30
2018-08-04T03:36:07.035Z,90.20
2018-08-04T03:38:35.785Z,90.20
2018-08-04T03:41:04.350Z,90.30
2018-08-04T03:43:33.959Z,90.40
2018-08-04T03:48:30.786Z,90.60
2018-08-04T03:50:59.347Z,90.80
2018-08-04T03:53:27.967Z,91.00
2018-08-04T03:55:56.566Z,91.00
2018-08-04T03:58:25.124Z,91.10
2018-08-04T04:00:53.719Z,91.20
2018-08-04T04:03:22.252Z,91.10
2018-08-04T04:05:50.756Z,91.00
2018-08-04T04:08:19.330Z,90.80
2018-08-04T04:10:47.896Z,90.70
2018-08-04T04:13:16.428Z,90.70
2018-08-04T04:15:45.059Z,90.80
2018-08-04T04:18:13.615Z,90.80
2018-08-04T04:20:42.197Z,91.00
2018-08-04T04:23:10.723Z,91.00
2018-08-04T04:25:39.250Z,91.00
2018-08-04T04:28:07.780Z,90.90
2018-08-04T04:30:36.387Z,90.80
2018-08-04T04:33:04.920Z,90.70
2018-08-04T04:35:33.506Z,90.60
2018-08-04T04:38:02.076Z,90.50
2018-08-04T04:40:30.634Z,90.50
2018-08-04T04:42:59.196Z,90.50
2018-08-04T04:45:27.783Z,90.50
2018-08-04T04:47:56.336Z,90.50
2018-08-04T04:50:25.206Z,90.30
2018-08-04T04:52:53.786Z,90.20
2018-08-04T04:55:22.352Z,89.30
2018-08-04T04:57:50.938Z,87.50
2018-08-04T05:00:19.486Z,86.50
2018-08-04T05:02:48.056Z,85.40
2018-08-04T05:05:16.698Z,84.70
2018-08-04T05:07:45.214Z,83.10
2018-08-04T05:10:13.814Z,81.60
2018-08-04T05:12:42.347Z,79.80
2018-08-04T05:15:10.905Z,77.90
2018-08-04T05:17:39.544Z,77.10
2018-08-04T05:20:08.358Z,75.90
2018-08-04T05:22:36.932Z,74.70
2018-08-04T05:25:06.042Z,72.40
2018-08-04T05:27:34.597Z,71.70
2018-08-04T05:30:03.183Z,71.40
2018-08-04T05:32:31.745Z,71.40
2018-08-04T05:35:00.294Z,72.10
2018-08-04T05:37:28.926Z,71.80
2018-08-04T05:39:57.504Z,70.60
2018-08-04T05:42:26.091Z,68.50
2018-08-04T05:44:54.645Z,67.80
2018-08-04T05:47:23.238Z,64.80
2018-08-04T05:49:51.793Z,63.10
2018-08-04T05:52:20.379Z,61.20
2018-08-04T05:54:48.928Z,59.60
2018-08-04T05:57:17.498Z,57.60
2018-08-04T05:59:46.068Z,56.60
2018-08-04T06:02:14.659Z,56.30
2018-08-04T06:04:43.329Z,54.80
2018-08-04T06:07:11.970Z,53.60
2018-08-04T06:09:40.554Z,51.30
2018-08-04T06:12:09.085Z,51.60
2018-08-04T06:14:37.620Z,52.50
2018-08-04T06:17:06.221Z,54.10
2018-08-04T06:19:34.803Z,53.70
2018-08-04T06:22:03.369Z,52.60
2018-08-04T06:24:31.887Z,51.20
2018-08-04T06:27:00.466Z,50.10
2018-08-04T06:29:29.022Z,47.30
2018-08-04T06:31:57.591Z,47.10
2018-08-04T06:34:26.097Z,47.60
2018-08-04T06:36:54.753Z,46.40
2018-08-04T06:39:23.316Z,45.80
2018-08-04T06:41:51.878Z,47.60
2018-08-04T06:44:20.446Z,48.10
2018-08-04T06:46:49.878Z,48.80
2018-08-04T06:49:18.450Z,47.30
2018-08-04T06:51:47.023Z,47.40
2018-08-04T06:54:15.588Z,49.10
2018-08-04T06:56:44.217Z,51.00
2018-08-04T06:59:12.731Z,52.30
2018-08-04T07:01:41.273Z,52.70
2018-08-04T07:04:09.810Z,54.00
2018-08-04T07:06:38.367Z,54.10
2018-08-04T07:09:08.625Z,54.30
2018-08-04T07:11:37.190Z,51.60
2018-08-04T07:14:06.591Z,45.20
2018-08-04T07:16:35.269Z,41.90
2018-08-04T07:19:03.956Z,39.90
2018-08-04T07:21:32.486Z,40.50
2018-08-04T07:24:01.027Z,41.50
2018-08-04T07:26:29.551Z,43.80
2018-08-04T07:31:26.431Z,43.10
2018-08-04T07:33:55.641Z,39.90
2018-08-04T07:36:24.154Z,36.20
2018-08-04T07:38:52.756Z,34.20
2018-08-04T07:41:21.435Z,31.30
2018-08-04T07:43:50.178Z,30.80
2018-08-04T07:46:18.796Z,30.50
2018-08-04T07:48:47.504Z,29.20
2018-08-04T07:51:16.068Z,28.40
2018-08-04T07:53:44.665Z,28.90
2018-08-04T07:56:13.230Z,28.80
2018-08-04T07:58:41.799Z,26.70
2018-08-04T08:01:10.417Z,25.60
2018-08-04T08:03:38.981Z,25.80
2018-08-04T08:06:07.495Z,25.90
2018-08-04T08:08:36.029Z,25.70
2018-08-04T08:11:04.580Z,25.60
2018-08-04T08:13:33.408Z,25.50
2018-08-04T08:16:01.907Z,24.60
2018-08-04T08:18:30.538Z,23.40
2018-08-04T08:20:59.077Z,23.20
2018-08-04T08:23:27.645Z,22.80
2018-08-04T08:26:06.010Z,22.20
2018-08-04T08:28:34.541Z,22.10
2018-08-04T08:31:03.207Z,22.00
2018-08-04T08:33:31.815Z,21.20
2018-08-04T08:36:00.451Z,21.80
2018-08-04T08:38:29.477Z,21.80
2018-08-04T08:40:58.206Z,21.00
2018-08-04T08:43:27.355Z,20.90
2018-08-04T08:45:55.893Z,20.60
2018-08-04T08:50:53.215Z,20.70
2018-08-04T08:53:22.247Z,20.60
2018-08-04T08:55:50.699Z,20.10
2018-08-04T08:58:19.382Z,20.00
2018-08-04T09:00:47.959Z,19.60
2018-08-04T09:03:16.498Z,20.00
2018-08-04T09:05:45.028Z,19.30
2018-08-04T09:08:13.659Z,20.30
2018-08-04T09:10:42.222Z,20.70
2018-08-04T09:13:10.765Z,20.40
2018-08-04T09:15:39.352Z,19.80
2018-08-04T09:18:07.939Z,20.70
2018-08-04T09:20:36.698Z,20.70
2018-08-04T09:23:05.401Z,19.60
2018-08-04T09:25:35.049Z,19.40
2018-08-04T09:28:03.867Z,19.60
2018-08-04T09:30:32.562Z,19.00
2018-08-04T09:33:01.143Z,19.90
2018-08-04T09:35:30.028Z,20.40
2018-08-04T09:37:58.598Z,19.90
2018-08-04T09:40:27.135Z,20.60
2018-08-04T09:42:55.667Z,21.60
2018-08-04T09:45:25.064Z,21.40
2018-08-04T09:47:53.656Z,21.60
2018-08-04T09:52:50.440Z,21.60
2018-08-04T09:55:19.103Z,22.20
2018-08-04T10:00:21.187Z,22.20
2018-08-04T10:02:49.770Z,23.50
2018-08-04T10:05:18.415Z,24.70
2018-08-04T10:07:46.954Z,26.40
2018-08-04T10:10:15.543Z,26.20
2018-08-04T10:12:44.168Z,27.30
2018-08-04T10:15:12.739Z,27.80
2018-08-04T10:17:41.339Z,27.90
2018-08-04T10:20:11.453Z,27.90
2018-08-04T10:22:40.089Z,30.10
2018-08-04T10:25:09.030Z,30.00
2018-08-04T10:27:37.609Z,30.50
2018-08-04T10:30:08.379Z,30.00
2018-08-04T10:32:37.090Z,30.10
2018-08-04T10:35:05.924Z,29.60
2018-08-04T10:37:34.951Z,29.90
2018-08-04T10:40:03.789Z,29.20
2018-08-04T10:42:32.460Z,29.70
2018-08-04T10:45:06.557Z,30.00
2018-08-04T10:47:35.833Z,29.20
2018-08-04T10:50:05.343Z,28.20
2018-08-04T10:55:02.485Z,27.00
2018-08-04T10:57:31.402Z,28.20
2018-08-04T11:00:02.166Z,26.90
2018-08-04T11:02:31.399Z,28.10
2018-08-04T11:05:00.138Z,25.70
2018-08-04T11:07:28.693Z,25.80
2018-08-04T11:09:57.290Z,25.00
2018-08-04T11:12:33.397Z,23.50
2018-08-04T11:15:03.371Z,24.00
2018-08-04T11:17:32.088Z,26.10
2018-08-04T11:20:00.707Z,25.30
2018-08-04T11:22:29.279Z,26.30
2018-08-04T11:24:57.814Z,24.90
2018-08-04T11:27:26.859Z,24.00
2018-08-04T11:29:55.849Z,23.70
2018-08-04T11:32:29.534Z,23.00
2018-08-04T11:34:58.611Z,23.90
2018-08-04T11:37:30.884Z,23.80
2018-08-04T11:39:59.690Z,23.00
2018-08-04T11:42:28.499Z,23.40
2018-08-04T11:44:57.327Z,22.40
2018-08-04T11:47:25.947Z,22.10
2018-08-04T11:49:54.494Z,23.20
2018-08-04T11:54:51.967Z,24.00
2018-08-04T11:57:21.452Z,24.20
2018-08-04T11:59:51.194Z,23.60
2018-08-04T12:02:20.506Z,25.20
2018-08-04T12:04:49.239Z,24.90
2018-08-04T12:07:17.819Z,23.90
2018-08-04T12:09:46.382Z,25.20
2018-08-04T12:12:14.981Z,26.30
2018-08-04T12:14:43.559Z,26.00
2018-08-04T12:17:12.169Z,25.90
2018-08-04T12:19:40.743Z,26.10
2018-08-04T12:22:10.247Z,27.30
2018-08-04T12:24:38.858Z,25.70
2018-08-04T12:27:07.385Z,25.80
2018-08-04T12:29:36.882Z,25.90
2018-08-04T12:32:05.923Z,26.30
2018-08-04T12:34:34.545Z,26.10
2018-08-04T12:37:03.046Z,26.10
2018-08-04T12:39:31.858Z,24.90
2018-08-04T12:42:00.425Z,25.90
2018-08-04T12:44:28.989Z,25.20
2018-08-04T12:46:57.579Z,25.10
2018-08-04T12:49:27.669Z,25.20
2018-08-04T12:51:56.991Z,25.40
2018-08-04T12:54:25.931Z,25.40
2018-08-04T12:56:54.404Z,25.90
2018-08-04T12:59:22.972Z,23.90
2018-08-04T13:01:51.573Z,23.50
2018-08-04T13:04:20.138Z,24.10
2018-08-04T13:06:48.709Z,22.50
2018-08-04T13:09:17.453Z,22.50
2018-08-04T13:11:46.003Z,22.80
2018-08-04T13:14:14.532Z,23.30
2018-08-04T13:16:43.062Z,22.30
2018-08-04T13:19:11.574Z,23.20
2018-08-04T13:21:40.167Z,21.80
2018-08-04T13:24:08.727Z,21.40
2018-08-04T13:26:37.262Z,21.50
2018-08-04T13:29:06.859Z,21.60
2018-08-04T13:31:35.676Z,21.50
2018-08-04T13:34:04.233Z,21.30
2018-08-04T13:36:32.880Z,21.80
2018-08-04T13:39:01.977Z,21.50
2018-08-04T13:41:30.744Z,21.50
2018-08-04T13:43:59.252Z,21.60
2018-08-04T13:46:29.765Z,21.20
2018-08-04T13:49:07.855Z,21.70
2018-08-04T13:54:35.980Z,20.90
2018-08-04T13:57:20.362Z,21.30
2018-08-04T14:00:02.186Z,20.80
2018-08-04T14:02:47.799Z,20.80
2018-08-04T14:05:29.394Z,21.00
2018-08-04T14:07:59.120Z,21.60
2018-08-04T14:10:32.534Z,21.50
2018-08-04T14:13:05.479Z,22.10
2018-08-04T14:15:35.437Z,21.20
2018-08-04T14:18:09.410Z,21.50
2018-08-04T14:20:43.771Z,22.80
2018-08-04T14:23:12.311Z,21.40
2018-08-04T14:25:43.137Z,22.60
2018-08-04T14:28:11.828Z,20.80
2018-08-04T14:30:40.372Z,20.40
2018-08-04T14:33:08.933Z,22.00
2018-08-04T14:38:05.796Z,23.00
2018-08-04T14:40:34.972Z,23.40
2018-08-04T14:43:03.814Z,23.80
2018-08-04T14:45:38.865Z,24.80
2018-08-04T14:48:14.260Z,24.00
2018-08-04T14:53:33.263Z,24.40
2018-08-04T14:56:04.707Z,23.90
2018-08-04T14:58:34.051Z,23.70
2018-08-04T15:01:03.133Z,23.60
2018-08-04T15:03:31.694Z,23.60
2018-08-04T15:06:00.260Z,23.30
2018-08-04T15:08:29.016Z,23.80
2018-08-04T15:10:58.493Z,24.00
2018-08-04T15:13:28.189Z,24.30
2018-08-04T15:15:57.633Z,24.70
2018-08-04T15:18:26.316Z,25.00
2018-08-04T15:20:55.036Z,24.80
2018-08-04T15:23:24.762Z,24.10
2018-08-04T15:25:53.632Z,24.20
2018-08-04T15:28:24.070Z,24.60
2018-08-04T15:30:52.898Z,25.10
2018-08-04T15:33:21.963Z,24.60
2018-08-04T15:35:53.254Z,24.90
2018-08-04T15:38:32.083Z,25.10
2018-08-04T15:41:00.973Z,25.20
2018-08-04T15:43:35.066Z,25.10
2018-08-04T15:46:04.149Z,25.10
2018-08-04T15:48:32.690Z,25.80
2018-08-04T15:51:01.440Z,25.10
2018-08-04T15:53:29.990Z,25.10
2018-08-04T15:55:58.560Z,24.60
2018-08-04T15:58:27.339Z,24.70
2018-08-04T16:00:56.896Z,24.20
2018-08-04T16:03:25.489Z,24.50
2018-08-04T16:05:54.789Z,23.90
2018-08-04T16:08:23.418Z,24.20
2018-08-04T16:10:51.968Z,23.80
2018-08-04T16:13:34.685Z,24.40
2018-08-04T16:16:06.210Z,24.80
2018-08-04T16:18:43.696Z,24.00
2018-08-04T16:21:13.039Z,24.20
2018-08-04T16:23:41.563Z,23.70
2018-08-04T16:26:10.103Z,23.90
2018-08-04T16:31:08.157Z,25.00
2018-08-04T16:33:36.877Z,25.10
2018-08-04T16:36:05.653Z,24.60
2018-08-04T16:38:34.210Z,25.70
2018-08-04T16:41:02.737Z,26.70
2018-08-04T16:43:31.574Z,27.40
2018-08-04T16:46:00.118Z,27.70
2018-08-04T16:48:28.603Z,28.10
2018-08-04T16:50:57.655Z,28.50
2018-08-04T16:53:26.322Z,28.60
2018-08-04T16:55:54.905Z,29.00
2018-08-04T16:58:23.542Z,28.90
2018-08-04T17:00:52.703Z,28.90
2018-08-04T17:03:21.343Z,28.70
2018-08-04T17:05:49.965Z,28.50
2018-08-04T17:08:18.833Z,28.70
2018-08-04T17:10:47.437Z,28.50
2018-08-04T17:13:30.088Z,29.00
2018-08-04T17:16:03.771Z,29.60
2018-08-04T17:18:32.630Z,29.10
2018-08-04T17:21:01.178Z,29.10
2018-08-04T17:23:31.581Z,29.30
2018-08-04T17:26:01.465Z,29.20
2018-08-04T17:28:31.207Z,29.50
2018-08-04T17:31:01.289Z,29.60
2018-08-04T17:33:29.902Z,29.50
2018-08-04T17:35:58.482Z,29.80
2018-08-04T17:38:27.050Z,29.80
2018-08-04T17:40:55.735Z,30.00
2018-08-04T17:43:28.901Z,30.10
2018-08-04T17:45:57.487Z,30.80
2018-08-04T17:48:26.067Z,30.90
2018-08-04T17:50:55.126Z,31.10
2018-08-04T17:55:51.928Z,31.50
2018-08-04T17:58:20.467Z,31.70
2018-08-04T18:00:49.138Z,32.60
2018-08-04T18:03:17.800Z,32.40
2018-08-04T18:05:46.472Z,32.40
2018-08-04T18:08:15.146Z,33.20
2018-08-04T18:10:43.870Z,34.10
2018-08-04T18:13:12.587Z,33.00
2018-08-04T18:15:41.157Z,33.30
2018-08-04T18:18:09.703Z,33.30
2018-08-04T18:20:38.983Z,33.10
2018-08-04T18:23:08.246Z,34.20
2018-08-04T18:25:37.055Z,33.30
2018-08-04T18:28:05.630Z,33.80
2018-08-04T18:30:34.236Z,34.10
2018-08-04T18:33:03.326Z,34.60
2018-08-04T18:35:32.353Z,36.70
2018-08-04T18:38:01.010Z,39.20
2018-08-04T18:40:29.563Z,38.60
2018-08-04T18:42:58.667Z,40.60
2018-08-04T18:45:27.859Z,40.90
2018-08-04T18:50:26.010Z,41.50
2018-08-04T18:52:55.096Z,41.50
2018-08-04T18:55:23.666Z,42.50
2018-08-04T18:57:52.257Z,43.50
2018-08-04T19:00:21.244Z,44.70
2018-08-04T19:02:51.189Z,45.10
2018-08-04T19:05:20.280Z,45.00
2018-08-04T19:07:48.902Z,45.40
2018-08-04T19:10:17.968Z,45.30
2018-08-04T19:12:46.644Z,45.80
2018-08-04T19:15:15.338Z,45.70
2018-08-04T19:17:44.653Z,46.10
2018-08-04T19:20:14.336Z,46.30
2018-08-04T19:22:43.443Z,46.70
2018-08-04T19:25:12.194Z,47.50
2018-08-04T19:27:41.726Z,47.20
2018-08-04T19:30:10.562Z,47.30
2018-08-04T19:32:40.624Z,48.00
2018-08-04T19:35:09.219Z,48.30
2018-08-04T19:37:37.863Z,48.60
2018-08-04T19:40:06.557Z,48.90
2018-08-04T19:42:53.765Z,48.70
2018-08-04T19:45:22.394Z,48.70
2018-08-04T19:47:50.932Z,48.80
2018-08-04T19:50:19.572Z,49.30
2018-08-04T19:52:48.199Z,49.10
2018-08-04T19:55:16.799Z,49.40
2018-08-04T19:57:45.432Z,50.10
2018-08-04T20:00:14.078Z,50.30
2018-08-04T20:02:42.859Z,50.50
2018-08-04T20:05:11.439Z,50.80
2018-08-04T20:07:39.986Z,50.80
2018-08-04T20:10:09.324Z,50.90
2018-08-04T20:12:42.110Z,51.40
2018-08-04T20:15:10.756Z,52.00
2018-08-04T20:20:07.793Z,53.10
2018-08-04T20:22:36.350Z,53.30
2018-08-04T20:25:06.021Z,53.60
2018-08-04T20:30:03.292Z,54.00
2018-08-04T20:32:32.257Z,54.30
2018-08-04T20:35:00.828Z,54.30
2018-08-04T20:37:30.097Z,54.60
2018-08-04T20:39:58.605Z,55.30
2018-08-04T20:42:27.238Z,55.10
2018-08-04T20:44:55.862Z,55.10
2018-08-04T20:47:24.455Z,54.90
2018-08-04T20:49:53.122Z,54.50
2018-08-04T20:52:21.722Z,54.70
2018-08-04T20:54:51.229Z,55.10
2018-08-04T20:57:20.013Z,55.70
2018-08-04T20:59:48.852Z,56.30
2018-08-04T21:02:17.571Z,56.50
2018-08-04T21:04:46.154Z,56.70
2018-08-04T21:07:15.036Z,56.90
2018-08-04T21:09:46.846Z,57.30
2018-08-04T21:12:15.669Z,57.60
2018-08-04T21:14:44.404Z,57.70
2018-08-04T21:17:15.835Z,57.80
2018-08-04T21:19:44.969Z,58.30
2018-08-04T21:24:42.061Z,59.40
2018-08-04T21:27:11.751Z,59.60
2018-08-04T21:29:41.380Z,59.70
2018-08-04T21:32:10.505Z,59.60
2018-08-04T21:34:40.010Z,59.60
2018-08-04T21:37:09.067Z,59.70
2018-08-04T21:39:37.675Z,60.20
2018-08-04T21:42:07.157Z,60.10
2018-08-04T21:44:37.246Z,60.60
2018-08-04T21:47:07.050Z,60.50
2018-08-04T21:49:36.530Z,60.90
2018-08-04T21:52:05.997Z,60.60
2018-08-04T21:54:34.633Z,60.60
2018-08-04T21:57:03.659Z,60.50
2018-08-04T21:59:35.999Z,60.50
2018-08-04T22:02:07.113Z,60.50
2018-08-04T22:04:36.484Z,60.70
2018-08-04T22:07:42.994Z,62.10
2018-08-04T22:10:14.132Z,61.30
2018-08-04T22:12:43.905Z,61.40
2018-08-04T22:18:52.074Z,61.40
2018-08-04T22:21:20.663Z,61.20
2018-08-04T22:23:49.867Z,61.60
2018-08-04T22:26:19.450Z,62.00
2018-08-04T22:28:48.609Z,62.30
2018-08-04T22:31:17.307Z,62.70
2018-08-04T22:33:45.944Z,63.40
2018-08-04T22:36:14.951Z,63.70
2018-08-04T22:38:43.843Z,63.40
2018-08-04T22:41:14.429Z,63.20
2018-08-04T22:43:43.109Z,62.30
2018-08-04T22:46:17.903Z,62.70
2018-08-04T22:48:48.945Z,62.80
2018-08-04T22:51:24.887Z,63.50
2018-08-04T22:53:53.523Z,65.50
2018-08-04T22:56:22.635Z,65.50
2018-08-04T22:58:51.538Z,65.60
2018-08-04T23:01:21.041Z,65.50
2018-08-04T23:03:49.693Z,65.50
2018-08-04T23:06:18.284Z,65.40
2018-08-04T23:09:01.335Z,66.90
2018-08-04T23:11:30.214Z,67.50
2018-08-04T23:13:58.814Z,67.90
2018-08-04T23:16:27.387Z,67.80
2018-08-04T23:18:58.072Z,66.80
2018-08-04T23:21:27.048Z,66.40
2018-08-04T23:23:55.704Z,66.60
2018-08-04T23:26:24.993Z,66.80
2018-08-04T23:28:55.940Z,67.10
2018-08-04T23:31:24.560Z,66.90
2018-08-04T23:33:53.303Z,66.30
2018-08-04T23:36:22.001Z,66.60
2018-08-04T23:38:50.643Z,66.80
2018-08-04T23:41:20.242Z,67.20
2018-08-04T23:43:49.586Z,67.40
2018-08-04T23:46:18.214Z,67.70
2018-08-04T23:48:46.955Z,67.60
2018-08-04T23:51:17.119Z,67.80
2018-08-04T23:53:45.759Z,67.90
2018-08-04T23:58:44.068Z,69.20
